createdAt,value
2024-03-26T00:00:49.469Z,66.0959
2024-03-26T00:01:52.273Z,66.5116
2024-03-26T00:02:55.032Z,66.6107
2024-03-26T00:03:57.708Z,66.5643
2024-03-26T00:05:00.398Z,66.5287
2024-03-26T00:06:03.123Z,66.2743
2024-03-26T00:07:05.869Z,66.6526
2024-03-26T00:08:08.534Z,65.2372
2024-03-26T00:09:11.257Z,65.8632
2024-03-26T00:10:14.013Z,65.6647
2024-03-26T00:11:16.736Z,65.9564
2024-03-26T00:12:19.524Z,66.2523
2024-03-26T00:13:22.184Z,66.7708
2024-03-26T00:14:24.953Z,66.2413
2024-03-26T00:15:27.618Z,66.3578
2024-03-26T00:16:30.335Z,66.1509
2024-03-26T00:17:33.017Z,66.8294
2024-03-26T00:18:35.763Z,66.6005
2024-03-26T00:19:38.506Z,66.2978
2024-03-26T00:20:41.184Z,66.7695
2024-03-26T00:21:43.962Z,66.9076
2024-03-26T00:22:46.659Z,66.9847
2024-03-26T00:23:49.346Z,67.7345
2024-03-26T00:24:52.026Z,67.4690
2024-03-26T00:25:54.747Z,66.4630
2024-03-26T00:26:57.562Z,66.7214
2024-03-26T00:28:00.280Z,66.7800
2024-03-26T00:29:02.942Z,66.9622
2024-03-26T00:30:05.702Z,66.8002
2024-03-26T00:31:08.435Z,67.1423
2024-03-26T00:32:11.477Z,67.4144
2024-03-26T00:33:14.223Z,66.7977
2024-03-26T00:34:16.889Z,66.5112
2024-03-26T00:35:19.627Z,67.0639
2024-03-26T00:36:22.457Z,67.1272
2024-03-26T00:37:25.150Z,67.1124
2024-03-26T00:38:27.893Z,67.7891
2024-03-26T00:39:30.629Z,68.1941
2024-03-26T00:40:33.312Z,67.4528
2024-03-26T00:41:36.004Z,67.4252
2024-03-26T00:42:38.651Z,67.2955
2024-03-26T00:43:41.388Z,67.1774
2024-03-26T00:44:44.097Z,66.6434
2024-03-26T00:45:46.820Z,66.5661
2024-03-26T00:46:49.503Z,67.4882
2024-03-26T00:47:52.264Z,67.5588
2024-03-26T00:48:54.941Z,67.8931
2024-03-26T00:49:57.698Z,67.7484
2024-03-26T00:51:00.417Z,67.2722
2024-03-26T00:52:03.177Z,67.6604
2024-03-26T00:53:05.867Z,68.2113
2024-03-26T00:54:08.576Z,68.9583
2024-03-26T00:55:11.242Z,69.4347
2024-03-26T00:56:14.017Z,68.9266
2024-03-26T00:57:16.720Z,68.3173
2024-03-26T00:58:19.458Z,68.4617
2024-03-26T00:59:22.161Z,68.2059
2024-03-26T01:00:24.840Z,67.3273
2024-03-26T01:01:27.531Z,67.6473
2024-03-26T01:02:30.385Z,67.9127
2024-03-26T01:03:33.051Z,69.0108
2024-03-26T01:04:35.776Z,69.6651
2024-03-26T01:05:38.445Z,69.8075
2024-03-26T01:06:41.217Z,69.6037
2024-03-26T01:07:43.906Z,69.1083
2024-03-26T01:08:46.589Z,69.3761
2024-03-26T01:09:49.304Z,69.1819
2024-03-26T01:10:52.176Z,68.7946
2024-03-26T01:11:54.871Z,69.7470
2024-03-26T01:12:57.590Z,70.5823
2024-03-26T01:14:00.252Z,70.3092
2024-03-26T01:15:03.014Z,69.6813
2024-03-26T01:16:05.702Z,70.4249
2024-03-26T01:17:08.445Z,70.2494
2024-03-26T01:18:11.078Z,69.4773
2024-03-26T01:19:13.916Z,70.4483
2024-03-26T01:20:16.891Z,70.4763
2024-03-26T01:21:22.866Z,70.0893
2024-03-26T01:22:22.784Z,69.4109
2024-03-26T01:23:25.440Z,69.6351
2024-03-26T01:24:28.185Z,70.1478
2024-03-26T01:25:31.077Z,70.0003
2024-03-26T01:26:33.858Z,69.1446
2024-03-26T01:27:36.586Z,69.5311
2024-03-26T01:28:39.300Z,68.8195
2024-03-26T01:29:41.969Z,69.2064
2024-03-26T01:30:44.721Z,68.5891
2024-03-26T01:31:47.466Z,68.6194
2024-03-26T01:32:50.217Z,68.2711
2024-03-26T01:33:52.905Z,69.8524
2024-03-26T01:34:55.918Z,69.8583
2024-03-26T01:35:58.670Z,69.2898
2024-03-26T01:37:01.383Z,68.6974
2024-03-26T01:38:04.019Z,69.3569
2024-03-26T01:39:06.794Z,69.9466
2024-03-26T01:40:09.544Z,70.2402
2024-03-26T01:41:12.246Z,70.2395
2024-03-26T01:42:14.984Z,70.0030
2024-03-26T01:43:17.668Z,69.6762
2024-03-26T01:44:20.430Z,69.9128
2024-03-26T01:45:23.137Z,70.2702
2024-03-26T01:46:25.857Z,70.1491
2024-03-26T01:47:28.535Z,69.3785
2024-03-26T01:48:31.309Z,69.8042
2024-03-26T01:49:34.017Z,69.6364
2024-03-26T01:50:36.789Z,70.0238
2024-03-26T01:51:39.522Z,70.4156
2024-03-26T01:52:42.197Z,70.6222
2024-03-26T01:53:44.963Z,70.4707
2024-03-26T01:54:47.698Z,70.3325
2024-03-26T01:55:50.365Z,70.5638
2024-03-26T01:56:53.063Z,70.8009
2024-03-26T01:57:55.732Z,70.9025
2024-03-26T01:58:58.429Z,70.7318
2024-03-26T02:00:01.145Z,70.7990
2024-03-26T02:01:03.941Z,71.1289
2024-03-26T02:02:06.651Z,71.5500
2024-03-26T02:03:09.318Z,71.7623
2024-03-26T02:04:12.102Z,71.6275
2024-03-26T02:05:14.822Z,70.4338
2024-03-26T02:06:17.533Z,70.4504
2024-03-26T02:07:20.219Z,71.1337
2024-03-26T02:08:22.988Z,71.8896
2024-03-26T02:09:25.699Z,72.1144
2024-03-26T02:10:28.410Z,71.4751
2024-03-26T02:11:31.143Z,71.9025
2024-03-26T02:12:33.873Z,72.7323
2024-03-26T02:13:36.607Z,71.8029
2024-03-26T02:14:39.346Z,71.5427
2024-03-26T02:15:42.078Z,71.1286
2024-03-26T02:16:44.802Z,71.4339
2024-03-26T02:17:47.566Z,71.2753
2024-03-26T02:18:50.224Z,70.6529
2024-03-26T02:19:52.960Z,70.4919
2024-03-26T02:20:55.732Z,69.9591
2024-03-26T02:21:58.478Z,69.9640
2024-03-26T02:23:01.188Z,70.2822
2024-03-26T02:24:04.134Z,70.9745
2024-03-26T02:25:06.820Z,70.5025
2024-03-26T02:26:09.558Z,70.3094
2024-03-26T02:27:12.255Z,70.1773
2024-03-26T02:28:14.970Z,70.5164
2024-03-26T02:29:17.742Z,70.2392
2024-03-26T02:30:20.427Z,70.4131
2024-03-26T02:31:23.138Z,70.5637
2024-03-26T02:32:25.962Z,71.2164
2024-03-26T02:33:28.655Z,70.6897
2024-03-26T02:34:31.405Z,70.3071
2024-03-26T02:35:34.131Z,69.9552
2024-03-26T02:36:36.854Z,69.4180
2024-03-26T02:37:39.581Z,69.9670
2024-03-26T02:38:42.358Z,70.1244
2024-03-26T02:39:45.160Z,69.4839
2024-03-26T02:40:47.939Z,69.4190
2024-03-26T02:41:50.717Z,69.2990
2024-03-26T02:42:53.448Z,69.9354
2024-03-26T02:43:56.228Z,70.1634
2024-03-26T02:44:58.963Z,69.9292
2024-03-26T02:46:01.852Z,69.9658
2024-03-26T02:47:04.586Z,69.7469
2024-03-26T02:48:07.324Z,70.2096
2024-03-26T02:49:10.011Z,70.1311
2024-03-26T02:50:12.742Z,70.7552
2024-03-26T02:51:15.458Z,70.5154
2024-03-26T02:52:18.173Z,70.1941
2024-03-26T02:53:20.958Z,70.3705
2024-03-26T02:54:23.675Z,70.2506
2024-03-26T02:55:26.569Z,70.6571
2024-03-26T02:56:29.372Z,69.3072
2024-03-26T02:57:32.113Z,69.3968
2024-03-26T02:58:34.850Z,70.5379
2024-03-26T02:59:37.668Z,71.2818
2024-03-26T03:00:40.556Z,70.4312
2024-03-26T03:01:43.297Z,71.0602
2024-03-26T03:02:47.255Z,70.3916
2024-03-26T03:03:47.137Z,70.3500
2024-03-26T03:04:49.977Z,70.2759
2024-03-26T03:05:52.719Z,70.1722
2024-03-26T03:06:55.425Z,69.6163
2024-03-26T03:07:58.154Z,69.0962
2024-03-26T03:09:00.937Z,68.9960
2024-03-26T03:10:03.751Z,68.7503
2024-03-26T03:11:06.482Z,68.9582
2024-03-26T03:12:09.217Z,69.4750
2024-03-26T03:13:11.996Z,69.4345
2024-03-26T03:14:14.777Z,69.2884
2024-03-26T03:15:17.515Z,69.4889
2024-03-26T03:16:20.244Z,69.3248
2024-03-26T03:17:23.041Z,69.4659
2024-03-26T03:18:25.854Z,69.6055
2024-03-26T03:19:28.578Z,69.7732
2024-03-26T03:20:31.321Z,69.7270
2024-03-26T03:21:34.068Z,70.3509
2024-03-26T03:22:36.840Z,70.5543
2024-03-26T03:23:39.773Z,69.7193
2024-03-26T03:24:42.497Z,69.6657
2024-03-26T03:25:45.262Z,70.3364
2024-03-26T03:26:48.011Z,70.0227
2024-03-26T03:27:50.724Z,70.4395
2024-03-26T03:28:53.437Z,70.8972
2024-03-26T03:29:56.177Z,71.2100
2024-03-26T03:30:58.968Z,71.1800
2024-03-26T03:32:01.696Z,71.1308
2024-03-26T03:33:04.580Z,71.5584
2024-03-26T03:34:07.285Z,71.7098
2024-03-26T03:35:10.040Z,71.9020
2024-03-26T03:36:12.722Z,71.6107
2024-03-26T03:37:15.464Z,71.2041
2024-03-26T03:38:18.165Z,71.0239
2024-03-26T03:39:20.899Z,70.6750
2024-03-26T03:40:23.603Z,70.3806
2024-03-26T03:41:26.340Z,70.0153
2024-03-26T03:42:29.045Z,69.9688
2024-03-26T03:43:31.778Z,70.3851
2024-03-26T03:44:34.495Z,70.0935
2024-03-26T03:45:37.479Z,70.3597
2024-03-26T03:46:40.245Z,70.9374
2024-03-26T03:47:42.988Z,71.4034
2024-03-26T03:48:45.680Z,70.7558
2024-03-26T03:49:48.393Z,70.4401
2024-03-26T03:50:51.242Z,70.1675
2024-03-26T03:51:53.962Z,70.1846
2024-03-26T03:52:56.692Z,70.2915
2024-03-26T03:53:59.420Z,69.8739
2024-03-26T03:55:02.338Z,69.6440
2024-03-26T03:56:05.057Z,70.2757
2024-03-26T03:57:07.785Z,70.9842
2024-03-26T03:58:10.831Z,71.3832
2024-03-26T03:59:13.531Z,71.6499
2024-03-26T04:00:16.272Z,71.8771
2024-03-26T04:01:18.968Z,72.1427
2024-03-26T04:02:21.693Z,71.2504
2024-03-26T04:03:24.460Z,71.2872
2024-03-26T04:04:27.228Z,70.8452
2024-03-26T04:05:29.955Z,71.2116
2024-03-26T04:06:32.731Z,70.0687
2024-03-26T04:07:35.620Z,70.9197
2024-03-26T04:08:38.336Z,70.3170
2024-03-26T04:09:41.048Z,70.6544
2024-03-26T04:10:43.767Z,70.8504
2024-03-26T04:11:46.485Z,71.2267
2024-03-26T04:12:49.299Z,72.0382
2024-03-26T04:13:52.014Z,71.9558
2024-03-26T04:14:54.749Z,72.0431
2024-03-26T04:15:57.696Z,71.1624
2024-03-26T04:17:00.426Z,71.1340
2024-03-26T04:18:03.207Z,70.6766
2024-03-26T04:19:05.977Z,70.8534
2024-03-26T04:20:08.717Z,70.6335
2024-03-26T04:21:11.402Z,70.7348
2024-03-26T04:22:14.140Z,71.1612
2024-03-26T04:23:16.912Z,71.1640
2024-03-26T04:24:19.776Z,71.5316
2024-03-26T04:25:22.593Z,71.8292
2024-03-26T04:26:25.322Z,71.8356
2024-03-26T04:27:28.060Z,72.1336
2024-03-26T04:28:30.808Z,72.5947
2024-03-26T04:29:33.548Z,72.9690
2024-03-26T04:30:36.395Z,73.2577
2024-03-26T04:31:39.142Z,73.1189
2024-03-26T04:32:41.860Z,72.4292
2024-03-26T04:33:44.591Z,72.2715
2024-03-26T04:34:47.271Z,72.4133
2024-03-26T04:35:50.038Z,72.3039
2024-03-26T04:36:52.723Z,72.0968
2024-03-26T04:37:55.457Z,72.2922
2024-03-26T04:38:58.484Z,73.0721
2024-03-26T04:40:01.253Z,73.1223
2024-03-26T04:41:04.007Z,72.9686
2024-03-26T04:42:06.748Z,72.9574
2024-03-26T04:43:09.455Z,72.9435
2024-03-26T04:44:12.207Z,73.0736
2024-03-26T04:45:14.944Z,73.4329
2024-03-26T04:46:17.667Z,73.3866
2024-03-26T04:47:20.605Z,73.2819
2024-03-26T04:48:23.379Z,73.1118
2024-03-26T04:49:26.086Z,73.0858
2024-03-26T04:50:28.887Z,73.3824
2024-03-26T04:51:31.774Z,73.9081
2024-03-26T04:52:34.520Z,73.9602
2024-03-26T04:53:37.342Z,74.1824
2024-03-26T04:54:40.251Z,74.0313
2024-03-26T04:55:42.964Z,74.4288
2024-03-26T04:56:45.684Z,74.7235
2024-03-26T04:57:48.412Z,74.8292
2024-03-26T04:58:51.151Z,75.2693
2024-03-26T04:59:53.860Z,75.7985
2024-03-26T05:00:56.577Z,75.5477
2024-03-26T05:01:59.376Z,73.8614
2024-03-26T05:03:02.135Z,73.4659
2024-03-26T05:04:04.876Z,74.1132
2024-03-26T05:05:07.618Z,74.6262
2024-03-26T05:06:10.430Z,74.9029
2024-03-26T05:07:13.154Z,74.6360
2024-03-26T05:08:15.946Z,74.9350
2024-03-26T05:09:18.649Z,74.6662
2024-03-26T05:10:21.397Z,75.1563
2024-03-26T05:11:24.154Z,75.4967
2024-03-26T05:12:27.220Z,75.0849
2024-03-26T05:13:29.925Z,75.0836
2024-03-26T05:14:32.890Z,74.4278
2024-03-26T05:15:35.612Z,74.4388
2024-03-26T05:16:38.379Z,73.9140
2024-03-26T05:17:41.118Z,74.0047
2024-03-26T05:18:43.852Z,74.5471
2024-03-26T05:19:46.584Z,74.5791
2024-03-26T05:20:49.348Z,73.9448
2024-03-26T05:21:52.196Z,74.2315
2024-03-26T05:22:55.009Z,74.2169
2024-03-26T05:23:57.755Z,74.2574
2024-03-26T05:25:00.503Z,74.4754
2024-03-26T05:26:03.456Z,74.2623
2024-03-26T05:27:06.239Z,74.1716
2024-03-26T05:28:08.967Z,74.5257
2024-03-26T05:29:11.776Z,75.4625
2024-03-26T05:30:14.478Z,74.6012
2024-03-26T05:31:17.159Z,73.9711
2024-03-26T05:32:19.845Z,74.1348
2024-03-26T05:33:22.556Z,74.2156
2024-03-26T05:34:25.344Z,73.9951
2024-03-26T05:35:28.271Z,74.2050
2024-03-26T05:36:30.971Z,74.4003
2024-03-26T05:37:33.669Z,75.2463
2024-03-26T05:38:36.442Z,74.6827
2024-03-26T05:39:39.085Z,74.2110
2024-03-26T05:40:41.860Z,74.1866
2024-03-26T05:41:44.536Z,74.4629
2024-03-26T05:42:47.291Z,74.6542
2024-03-26T05:43:50.028Z,75.1669
2024-03-26T05:44:52.793Z,75.1069
2024-03-26T05:45:55.436Z,75.2705
2024-03-26T05:46:58.177Z,75.7459
2024-03-26T05:48:00.900Z,75.4303
2024-03-26T05:49:03.622Z,74.7891
2024-03-26T05:50:06.303Z,74.2698
2024-03-26T05:51:09.037Z,74.1605
2024-03-26T05:52:11.778Z,74.1766
2024-03-26T05:53:14.500Z,74.3877
2024-03-26T05:54:17.186Z,74.0603
2024-03-26T05:55:19.937Z,74.0113
2024-03-26T05:56:22.993Z,73.1656
2024-03-26T05:57:25.694Z,73.4249
2024-03-26T05:58:28.422Z,73.2464
2024-03-26T05:59:31.124Z,73.2322
2024-03-26T06:00:33.891Z,73.6840
2024-03-26T06:01:36.587Z,74.0396
2024-03-26T06:02:39.359Z,73.7411
2024-03-26T06:03:42.054Z,73.4726
2024-03-26T06:04:44.739Z,73.2768
2024-03-26T06:05:47.570Z,73.5158
2024-03-26T06:06:50.254Z,73.5158
2024-03-26T06:07:52.916Z,73.3886
2024-03-26T06:08:55.690Z,73.5424
2024-03-26T06:09:58.347Z,73.3307
2024-03-26T06:11:01.058Z,73.2637
2024-03-26T06:12:03.741Z,73.3597
2024-03-26T06:13:07.785Z,73.5018
2024-03-26T06:14:07.084Z,73.1138
2024-03-26T06:15:09.786Z,73.6965
2024-03-26T06:16:12.474Z,73.9624
2024-03-26T06:17:15.146Z,73.5022
2024-03-26T06:18:17.809Z,73.0157
2024-03-26T06:19:20.585Z,72.3210
2024-03-26T06:20:23.250Z,71.9347
2024-03-26T06:21:25.997Z,72.1212
2024-03-26T06:22:28.762Z,71.7970
2024-03-26T06:23:31.528Z,71.7465
2024-03-26T06:24:34.173Z,71.2934
2024-03-26T06:25:36.869Z,71.2740
2024-03-26T06:26:39.613Z,71.3403
2024-03-26T06:27:42.288Z,71.8578
2024-03-26T06:28:45.056Z,71.4810
2024-03-26T06:29:47.782Z,70.8482
2024-03-26T06:30:50.491Z,70.9343
2024-03-26T06:31:53.234Z,71.2980
2024-03-26T06:32:55.987Z,70.7851
2024-03-26T06:33:58.678Z,70.9354
2024-03-26T06:35:01.373Z,71.1014
2024-03-26T06:36:04.100Z,71.0161
2024-03-26T06:37:06.805Z,70.7649
2024-03-26T06:38:09.880Z,70.3422
2024-03-26T06:39:12.625Z,70.8921
2024-03-26T06:40:15.319Z,70.9110
2024-03-26T06:41:17.996Z,70.5522
2024-03-26T06:42:20.746Z,70.0489
2024-03-26T06:43:23.459Z,70.2542
2024-03-26T06:44:26.231Z,70.7594
2024-03-26T06:45:29.223Z,70.6939
2024-03-26T06:46:31.918Z,69.9133
2024-03-26T06:47:34.650Z,69.7046
2024-03-26T06:48:37.387Z,69.7000
2024-03-26T06:49:40.147Z,69.6204
2024-03-26T06:50:42.836Z,69.5105
2024-03-26T06:51:46.135Z,69.1048
2024-03-26T06:52:48.926Z,68.5728
2024-03-26T06:53:51.608Z,68.4757
2024-03-26T06:54:54.352Z,68.3423
2024-03-26T06:55:57.076Z,68.3749
2024-03-26T06:56:59.780Z,68.4385
2024-03-26T06:58:02.558Z,67.6919
2024-03-26T06:59:05.212Z,67.8713
2024-03-26T07:00:07.922Z,68.2904
2024-03-26T07:01:10.591Z,67.3777
2024-03-26T07:02:13.390Z,67.2026
2024-03-26T07:03:16.142Z,67.4704
2024-03-26T07:04:18.817Z,67.3956
2024-03-26T07:05:21.536Z,67.6160
2024-03-26T07:06:24.256Z,67.1484
2024-03-26T07:07:26.993Z,67.5521
2024-03-26T07:08:29.687Z,67.6166
2024-03-26T07:09:32.362Z,67.1911
2024-03-26T07:10:35.134Z,67.2342
2024-03-26T07:11:37.868Z,67.4944
2024-03-26T07:12:40.557Z,67.4322
2024-03-26T07:13:43.232Z,67.7516
2024-03-26T07:14:46.036Z,68.1509
2024-03-26T07:15:48.820Z,67.6648
2024-03-26T07:16:51.478Z,67.6794
2024-03-26T07:17:54.209Z,68.0775
2024-03-26T07:18:56.873Z,68.3770
2024-03-26T07:19:59.631Z,68.1594
2024-03-26T07:21:02.340Z,67.9963
2024-03-26T07:22:05.115Z,68.1917
2024-03-26T07:23:07.754Z,68.7148
2024-03-26T07:24:10.503Z,69.0921
2024-03-26T07:25:13.241Z,69.1788
2024-03-26T07:26:15.960Z,69.1162
2024-03-26T07:27:18.663Z,69.0987
2024-03-26T07:28:21.374Z,69.1633
2024-03-26T07:29:24.099Z,68.7726
2024-03-26T07:30:26.844Z,68.6651
2024-03-26T07:31:29.511Z,68.5365
2024-03-26T07:32:32.223Z,68.4488
2024-03-26T07:33:34.985Z,68.1940
2024-03-26T07:34:37.723Z,67.8573
2024-03-26T07:35:40.443Z,67.6019
2024-03-26T07:36:43.162Z,67.0913
2024-03-26T07:37:45.859Z,66.9600
2024-03-26T07:38:48.591Z,66.7826
2024-03-26T07:39:51.277Z,66.9147
2024-03-26T07:40:53.998Z,66.2297
2024-03-26T07:41:56.743Z,65.3123
2024-03-26T07:43:01.417Z,64.9556
2024-03-26T07:43:59.419Z,65.2998
2024-03-26T07:45:02.536Z,65.4318
2024-03-26T07:46:05.208Z,64.8564
2024-03-26T07:47:08.098Z,63.7212
2024-03-26T07:48:10.857Z,64.3523
2024-03-26T07:49:13.561Z,64.6195
2024-03-26T07:50:16.302Z,63.9606
2024-03-26T07:51:19.646Z,63.8811
2024-03-26T07:52:19.545Z,63.4186
2024-03-26T07:53:22.333Z,62.5992
2024-03-26T07:54:24.947Z,63.2085
2024-03-26T07:55:27.688Z,63.0321
2024-03-26T07:56:30.389Z,63.6143
2024-03-26T07:57:33.115Z,63.1812
2024-03-26T07:58:35.786Z,63.0233
2024-03-26T07:59:38.533Z,62.7760
2024-03-26T08:00:41.323Z,62.3233
2024-03-26T08:01:44.263Z,61.6528
2024-03-26T08:02:46.948Z,61.7570
2024-03-26T08:03:49.712Z,62.3430
2024-03-26T08:04:52.414Z,62.4813
2024-03-26T08:05:55.220Z,61.5214
2024-03-26T08:06:57.941Z,61.3020
2024-03-26T08:08:00.878Z,60.6932
2024-03-26T08:09:03.612Z,61.1572
2024-03-26T08:10:06.399Z,60.8709
2024-03-26T08:11:09.381Z,61.0370
2024-03-26T08:12:12.050Z,61.9388
2024-03-26T08:13:14.823Z,61.7847
2024-03-26T08:14:17.581Z,61.2645
2024-03-26T08:15:20.303Z,61.1111
2024-03-26T08:16:23.032Z,61.5675
2024-03-26T08:17:25.735Z,62.1219
2024-03-26T08:18:28.493Z,61.7217
2024-03-26T08:19:31.630Z,60.9891
2024-03-26T08:20:31.383Z,61.8435
2024-03-26T08:21:34.079Z,61.0258
2024-03-26T08:22:36.761Z,60.1511
2024-03-26T08:23:39.480Z,59.7042
2024-03-26T08:24:42.240Z,59.8082
2024-03-26T08:25:44.940Z,58.6333
2024-03-26T08:26:47.636Z,59.0326
2024-03-26T08:27:50.341Z,58.7504
2024-03-26T08:28:53.069Z,58.7986
2024-03-26T08:29:55.777Z,58.4594
2024-03-26T08:30:58.519Z,58.5062
2024-03-26T08:32:01.218Z,59.2697
2024-03-26T08:33:04.408Z,58.2540
2024-03-26T08:34:07.142Z,57.5781
2024-03-26T08:35:09.859Z,58.0841
2024-03-26T08:36:13.017Z,58.6741
2024-03-26T08:37:12.670Z,57.1856
2024-03-26T08:38:15.355Z,55.9334
2024-03-26T08:39:18.055Z,55.5013
2024-03-26T08:40:20.941Z,54.8622
2024-03-26T08:41:23.793Z,54.5673
2024-03-26T08:42:26.519Z,54.8950
2024-03-26T08:43:29.285Z,55.9091
2024-03-26T08:44:32.351Z,57.2229
2024-03-26T08:45:35.019Z,56.4333
2024-03-26T08:46:37.706Z,56.0501
2024-03-26T08:47:40.428Z,56.2815
2024-03-26T08:48:43.152Z,55.9694
2024-03-26T08:49:45.860Z,56.2931
2024-03-26T08:50:48.606Z,56.1722
2024-03-26T08:51:52.202Z,56.3397
2024-03-26T08:52:51.571Z,57.2719
2024-03-26T08:53:54.279Z,57.2184
2024-03-26T08:54:56.979Z,57.1684
2024-03-26T08:56:08.565Z,56.7236
2024-03-26T08:57:01.407Z,56.9062
2024-03-26T08:58:04.058Z,56.4908
2024-03-26T08:59:06.806Z,56.2863
2024-03-26T09:00:09.557Z,56.0855
2024-03-26T09:01:12.279Z,56.3199
2024-03-26T09:02:14.992Z,56.0366
2024-03-26T09:03:17.772Z,55.4676
2024-03-26T09:04:21.934Z,55.9857
2024-03-26T09:05:22.608Z,56.2737
2024-03-26T09:06:25.299Z,56.1017
2024-03-26T09:07:28.206Z,55.9297
2024-03-26T09:08:31.000Z,56.0888
2024-03-26T09:09:33.696Z,55.4977
2024-03-26T09:10:36.431Z,55.3729
2024-03-26T09:11:39.146Z,54.3789
2024-03-26T09:12:41.865Z,53.4680
2024-03-26T09:13:45.019Z,54.1640
2024-03-26T09:14:47.692Z,54.3281
2024-03-26T09:15:50.482Z,53.7047
2024-03-26T09:16:53.192Z,55.1172
2024-03-26T09:17:55.922Z,53.2845
2024-03-26T09:19:01.701Z,53.5733
2024-03-26T09:20:01.641Z,53.2152
2024-03-26T09:21:04.366Z,54.3867
2024-03-26T09:22:07.316Z,52.4034
2024-03-26T09:23:10.026Z,52.5984
2024-03-26T09:24:12.719Z,52.1162
2024-03-26T09:25:15.460Z,52.1529
2024-03-26T09:26:18.195Z,51.9972
2024-03-26T09:27:20.922Z,51.6127
2024-03-26T09:28:23.692Z,50.7312
2024-03-26T09:29:26.365Z,49.8878
2024-03-26T09:30:29.377Z,49.1388
2024-03-26T09:31:32.141Z,48.9530
2024-03-26T09:32:34.830Z,49.6485
2024-03-26T09:33:37.597Z,50.0447
2024-03-26T09:34:40.332Z,50.9272
2024-03-26T09:35:43.308Z,48.5768
2024-03-26T09:36:46.158Z,46.5575
2024-03-26T09:37:49.941Z,47.5651
2024-03-26T09:38:51.048Z,47.5679
2024-03-26T09:39:51.748Z,48.7228
2024-03-26T09:40:54.555Z,46.7510
2024-03-26T09:41:57.439Z,48.1785
2024-03-26T09:43:00.167Z,48.7705
2024-03-26T09:44:03.050Z,50.6504
2024-03-26T09:45:06.857Z,51.8815
2024-03-26T09:46:06.659Z,53.4289
2024-03-26T09:47:09.377Z,53.1415
2024-03-26T09:48:12.096Z,53.3724
2024-03-26T09:49:14.830Z,53.4514
2024-03-26T09:50:17.628Z,52.3072
2024-03-26T09:51:20.571Z,52.5007
2024-03-26T09:52:23.331Z,51.6693
2024-03-26T09:53:26.068Z,50.7039
2024-03-26T09:54:28.996Z,50.8740
2024-03-26T09:55:31.805Z,51.6086
2024-03-26T09:56:34.528Z,51.1735
2024-03-26T09:57:37.274Z,51.0941
2024-03-26T09:58:40.289Z,50.0331
2024-03-26T09:59:43.093Z,51.6149
2024-03-26T10:00:45.834Z,49.7186
2024-03-26T10:01:48.548Z,51.5525
2024-03-26T10:02:51.454Z,50.3957
2024-03-26T10:03:54.509Z,50.6213
2024-03-26T10:04:57.244Z,50.7785
2024-03-26T10:06:00.097Z,51.2677
2024-03-26T10:07:02.982Z,52.9489
2024-03-26T10:08:05.715Z,52.0898
2024-03-26T10:09:08.735Z,52.2730
2024-03-26T10:10:11.488Z,53.2539
2024-03-26T10:11:14.273Z,52.7347
2024-03-26T10:12:17.243Z,54.1471
2024-03-26T10:13:20.003Z,52.8919
2024-03-26T10:14:22.771Z,52.1956
2024-03-26T10:15:25.700Z,51.0792
2024-03-26T10:16:28.426Z,51.8829
2024-03-26T10:17:33.250Z,53.5970
2024-03-26T10:18:32.854Z,51.4124
2024-03-26T10:19:35.608Z,52.7381
2024-03-26T10:20:38.412Z,52.3418
2024-03-26T10:21:41.373Z,51.5340
2024-03-26T10:22:44.108Z,52.7507
2024-03-26T10:23:46.901Z,52.9755
2024-03-26T10:24:49.858Z,52.3712
2024-03-26T10:25:52.572Z,52.7534
2024-03-26T10:26:55.381Z,52.4453
2024-03-26T10:27:58.097Z,52.0581
2024-03-26T10:29:01.082Z,51.6382
2024-03-26T10:30:03.886Z,52.0520
2024-03-26T10:31:06.653Z,53.0298
2024-03-26T10:32:09.629Z,53.5888
2024-03-26T10:33:12.560Z,54.1754
2024-03-26T10:34:15.245Z,53.7105
2024-03-26T10:35:18.021Z,53.5699
2024-03-26T10:36:20.815Z,54.3588
2024-03-26T10:37:23.548Z,54.2693
2024-03-26T10:38:26.487Z,54.0576
2024-03-26T10:39:29.285Z,54.1760
2024-03-26T10:40:32.021Z,54.7951
2024-03-26T10:41:34.935Z,53.0931
2024-03-26T10:42:37.968Z,54.4593
2024-03-26T10:43:40.695Z,53.5359
2024-03-26T10:44:43.704Z,54.0445
2024-03-26T10:45:59.960Z,54.1680
2024-03-26T10:46:49.399Z,53.0607
2024-03-26T10:47:48.938Z,54.0063
2024-03-26T10:48:57.495Z,54.4302
2024-03-26T10:49:53.414Z,55.0792
2024-03-26T10:50:56.625Z,54.8621
2024-03-26T10:51:59.377Z,53.6450
2024-03-26T10:53:02.296Z,54.8667
2024-03-26T10:54:05.103Z,54.9751
2024-03-26T10:55:07.830Z,55.1266
2024-03-26T10:56:10.714Z,53.8914
2024-03-26T10:57:13.478Z,53.5911
2024-03-26T10:58:16.201Z,53.5325
2024-03-26T10:59:18.979Z,53.5314
2024-03-26T11:00:21.946Z,53.9640
2024-03-26T11:01:24.666Z,53.5525
2024-03-26T11:02:27.396Z,53.5276
2024-03-26T11:03:30.106Z,53.0158
2024-03-26T11:04:32.831Z,52.8651
2024-03-26T11:05:35.861Z,50.6699
2024-03-26T11:06:38.606Z,48.7564
2024-03-26T11:07:41.577Z,48.4578
2024-03-26T11:08:44.360Z,47.8707
2024-03-26T11:09:47.115Z,46.7472
2024-03-26T11:10:52.500Z,47.2358
2024-03-26T11:11:52.099Z,47.7023
2024-03-26T11:12:54.890Z,47.2123
2024-03-26T11:13:57.639Z,45.5195
2024-03-26T11:15:00.454Z,46.7892
2024-03-26T11:16:03.799Z,46.1478
2024-03-26T11:17:04.044Z,45.9002
2024-03-26T11:18:06.936Z,44.8185
2024-03-26T11:19:09.727Z,43.7920
2024-03-26T11:20:12.668Z,43.2181
2024-03-26T11:21:15.396Z,43.6501
2024-03-26T11:22:18.459Z,44.3533
2024-03-26T11:23:21.258Z,43.7441
2024-03-26T11:24:23.998Z,43.5237
2024-03-26T11:25:26.788Z,43.6296
2024-03-26T11:26:29.657Z,42.1877
2024-03-26T11:27:32.676Z,41.3709
2024-03-26T11:28:35.391Z,42.7675
2024-03-26T11:29:38.302Z,43.4224
2024-03-26T11:30:41.157Z,43.9916
2024-03-26T11:31:43.956Z,42.9932
2024-03-26T11:32:46.707Z,42.4355
2024-03-26T11:33:49.631Z,44.3036
2024-03-26T11:34:52.459Z,43.7422
2024-03-26T11:35:55.202Z,43.7524
2024-03-26T11:36:58.108Z,42.4201
2024-03-26T11:38:03.485Z,42.0457
2024-03-26T11:39:03.087Z,40.3765
2024-03-26T11:40:06.024Z,41.1916
2024-03-26T11:41:08.984Z,40.1618
2024-03-26T11:42:11.867Z,38.9099
2024-03-26T11:43:14.762Z,39.2254
2024-03-26T11:44:17.554Z,39.3872
2024-03-26T11:45:20.518Z,39.3576
2024-03-26T11:46:23.267Z,40.8088
2024-03-26T11:47:26.101Z,41.6884
2024-03-26T11:48:28.844Z,42.7649
2024-03-26T11:49:31.762Z,43.4176
2024-03-26T11:50:34.536Z,43.5410
2024-03-26T11:51:37.869Z,41.8257
2024-03-26T11:52:38.301Z,41.3306
2024-03-26T11:53:41.310Z,41.6403
2024-03-26T11:54:44.118Z,43.0488
2024-03-26T11:55:47.085Z,43.7501
2024-03-26T11:56:49.848Z,41.9467
2024-03-26T11:57:52.625Z,41.6326
2024-03-26T11:58:55.578Z,40.6569
2024-03-26T11:59:58.326Z,41.2782
2024-03-26T12:01:01.099Z,40.3615
2024-03-26T12:02:03.839Z,41.2221
2024-03-26T12:03:06.796Z,41.6869
2024-03-26T12:04:09.524Z,41.4498
2024-03-26T12:05:12.527Z,40.9883
2024-03-26T12:06:15.245Z,41.8737
2024-03-26T12:07:17.996Z,40.5021
2024-03-26T12:08:20.749Z,39.5035
2024-03-26T12:09:23.545Z,39.2440
2024-03-26T12:10:26.317Z,38.9715
2024-03-26T12:11:29.191Z,38.5202
2024-03-26T12:12:31.879Z,40.7362
2024-03-26T12:13:34.607Z,39.7414
2024-03-26T12:14:37.345Z,38.5221
2024-03-26T12:15:40.374Z,36.4940
2024-03-26T12:16:43.331Z,34.6565
2024-03-26T12:17:46.230Z,34.9304
2024-03-26T12:18:48.969Z,33.8842
2024-03-26T12:19:51.882Z,37.0428
2024-03-26T12:20:54.946Z,35.8050
2024-03-26T12:21:57.693Z,35.4030
2024-03-26T12:23:00.492Z,34.5107
2024-03-26T12:24:03.272Z,35.2456
2024-03-26T12:25:06.166Z,34.4118
2024-03-26T12:26:08.910Z,34.1365
2024-03-26T12:27:11.844Z,37.3560
2024-03-26T12:28:14.649Z,38.0239
2024-03-26T12:29:17.399Z,36.2541
2024-03-26T12:30:20.404Z,34.7300
2024-03-26T12:31:23.325Z,33.5782
2024-03-26T12:32:26.124Z,35.1142
2024-03-26T12:33:28.949Z,33.3305
2024-03-26T12:34:31.871Z,32.2961
2024-03-26T12:35:34.624Z,33.4279
2024-03-26T12:36:37.460Z,32.6620
2024-03-26T12:37:40.390Z,33.7207
2024-03-26T12:38:43.128Z,33.9962